Time;durP1;ratioP1;P1;durP2;ratioP2;P2;SDS_P1;SDS_P2;PMS_P1;PMS_P2;Temp;Humidity;BMP_temperature;BMP_pressure;BME280_temperature;BME280_humidity;BME280_pressure;Samples;Min_cycle;Max_cycle;Signal;HPM_P1;HPM_P2
2023/12/20 00:00:58;;;;;;;12.50;2.33;;;;;;;;;;5073464;28;20035;-31
2023/12/20 00:03:23;;;;;;;13.10;1.90;;;;;;;;;;5073062;28;20063;-32
2023/12/20 00:05:49;;;;;;;15.70;2.20;;;;;;;;;;5073163;28;20263;-32
2023/12/20 00:08:14;;;;;;;14.05;2.22;;;;;;;;;;5073132;28;20362;-32
2023/12/20 00:10:39;;;;;;;15.63;1.70;;;;;;;;;;5072802;28;20032;-32
2023/12/20 00:13:06;;;;;;;15.98;2.20;;;;;;;;;;5075958;28;20023;-32
2023/12/20 00:15:31;;;;;;;11.45;1.90;;;;;;;;;;5076307;28;20074;-31
2023/12/20 00:17:56;;;;;;;12.67;2.23;;;;;;;;;;5076495;28;20028;-32
2023/12/20 00:20:21;;;;;;;11.73;2.03;;;;;;;;;;5058898;28;20267;-32
2023/12/20 00:22:46;;;;;;;14.87;2.00;;;;;;;;;;5077508;28;20027;-32
2023/12/20 00:25:12;;;;;;;13.95;2.20;;;;;;;;;;5077103;28;20270;-32
2023/12/20 00:27:37;;;;;;;9.80;2.25;;;;;;;;;;5076777;28;20020;-32
2023/12/20 00:30:02;;;;;;;15.43;2.20;;;;;;;;;;5076780;28;20422;-32
2023/12/20 00:32:27;;;;;;;12.27;2.40;;;;;;;;;;5077280;28;20250;-32
2023/12/20 00:34:52;;;;;;;15.67;2.17;;;;;;;;;;5076960;28;20455;-32
2023/12/20 00:37:18;;;;;;;11.83;2.10;;;;;;;;;;5076584;28;20270;-32
2023/12/20 00:39:43;;;;;;;19.30;2.57;;;;;;;;;;5077185;28;20262;-32
2023/12/20 00:42:08;;;;;;;14.35;2.45;;;;;;;;;;5076759;28;20755;-32
2023/12/20 00:44:34;;;;;;;14.83;2.30;;;;;;;;;;5077102;28;20009;-31
2023/12/20 00:46:59;;;;;;;18.63;2.73;;;;;;;;;;5077560;28;20342;-32
2023/12/20 00:49:24;;;;;;;21.50;2.83;;;;;;;;;;5076399;28;20660;-32
2023/12/20 00:51:50;;;;;;;21.43;2.60;;;;;;;;;;5076885;28;20251;-32
2023/12/20 00:54:15;;;;;;;19.48;2.65;;;;;;;;;;5076342;28;20273;-32
2023/12/20 00:56:40;;;;;;;14.82;2.30;;;;;;;;;;5076221;28;20103;-32
2023/12/20 00:59:06;;;;;;;9.00;2.20;;;;;;;;;;5074977;28;20024;-32
2023/12/20 01:01:32;;;;;;;21.33;2.63;;;;;;;;;;5076118;28;20652;-31
2023/12/20 01:03:58;;;;;;;15.85;2.30;;;;;;;;;;5075935;28;20283;-31
2023/12/20 01:06:23;;;;;;;17.13;2.30;;;;;;;;;;5076643;28;20066;-32
2023/12/20 01:08:48;;;;;;;14.93;2.23;;;;;;;;;;5076114;28;20270;-32
2023/12/20 01:11:13;;;;;;;13.30;2.28;;;;;;;;;;5076136;28;20251;-32
2023/12/20 01:13:38;;;;;;;23.27;2.30;;;;;;;;;;5075917;28;20421;-31
2023/12/20 01:16:04;;;;;;;21.83;2.80;;;;;;;;;;5076466;28;20251;-32
2023/12/20 01:18:29;;;;;;;18.90;2.15;;;;;;;;;;5075766;28;20314;-33
2023/12/20 01:20:55;;;;;;;15.68;2.78;;;;;;;;;;5075803;28;20066;-31
2023/12/20 01:23:20;;;;;;;16.67;2.17;;;;;;;;;;5076098;28;20077;-31
2023/12/20 01:25:45;;;;;;;16.00;2.67;;;;;;;;;;5075715;28;20024;-31
2023/12/20 01:28:10;;;;;;;13.93;2.47;;;;;;;;;;5075713;28;20247;-32
2023/12/20 01:30:35;;;;;;;14.40;2.67;;;;;;;;;;5075239;28;20407;-31
2023/12/20 01:33:01;;;;;;;14.97;2.53;;;;;;;;;;5075460;28;20097;-32
2023/12/20 01:35:26;;;;;;;17.67;2.80;;;;;;;;;;5075331;28;20263;-31
2023/12/20 01:37:51;;;;;;;29.48;2.80;;;;;;;;;;5074552;28;20485;-31
2023/12/20 01:40:16;;;;;;;19.83;2.63;;;;;;;;;;5074597;28;20013;-31
2023/12/20 01:42:42;;;;;;;19.87;2.60;;;;;;;;;;5074746;28;20104;-32
2023/12/20 01:45:08;;;;;;;22.63;3.30;;;;;;;;;;5075139;28;20285;-32
2023/12/20 01:47:33;;;;;;;16.02;2.55;;;;;;;;;;5074785;28;20024;-32
2023/12/20 01:49:59;;;;;;;18.35;3.83;;;;;;;;;;5075316;28;20443;-32
2023/12/20 01:52:25;;;;;;;14.20;2.42;;;;;;;;;;5075158;28;20090;-31
2023/12/20 01:54:50;;;;;;;15.68;2.60;;;;;;;;;;5075959;28;20027;-32
2023/12/20 01:57:16;;;;;;;14.80;2.90;;;;;;;;;;5075009;28;20017;-32
2023/12/20 01:59:41;;;;;;;19.92;3.08;;;;;;;;;;5075162;28;20096;-32
2023/12/20 02:02:07;;;;;;;19.55;2.80;;;;;;;;;;5075355;28;20072;-32
2023/12/20 02:04:32;;;;;;;17.75;3.08;;;;;;;;;;5074841;28;20040;-31
2023/12/20 02:06:58;;;;;;;20.33;3.08;;;;;;;;;;5074983;28;20047;-32
2023/12/20 02:09:23;;;;;;;21.52;3.10;;;;;;;;;;5074826;28;20020;-32
2023/12/20 02:11:49;;;;;;;14.68;2.47;;;;;;;;;;5075053;28;20455;-32
2023/12/20 02:14:14;;;;;;;20.15;3.00;;;;;;;;;;5074781;28;20443;-31
2023/12/20 02:16:40;;;;;;;18.98;2.90;;;;;;;;;;5074598;28;20024;-32
2023/12/20 02:19:06;;;;;;;19.83;2.65;;;;;;;;;;5074698;28;20099;-32
2023/12/20 02:21:33;;;;;;;24.00;2.75;;;;;;;;;;5073818;28;20104;-32
2023/12/20 02:23:58;;;;;;;24.50;3.20;;;;;;;;;;5074280;28;20027;-31
2023/12/20 02:26:24;;;;;;;18.43;3.00;;;;;;;;;;5074998;28;20016;-31
2023/12/20 02:28:49;;;;;;;17.75;2.80;;;;;;;;;;5074451;28;20262;-31
2023/12/20 02:31:14;;;;;;;15.40;3.00;;;;;;;;;;5074953;28;20087;-32
2023/12/20 02:33:39;;;;;;;21.75;3.35;;;;;;;;;;5074624;28;20255;-32
2023/12/20 02:36:06;;;;;;;17.00;3.10;;;;;;;;;;5074314;28;20012;-32
2023/12/20 02:38:31;;;;;;;21.75;2.97;;;;;;;;;;5074448;28;20351;-32
2023/12/20 02:40:56;;;;;;;20.10;3.08;;;;;;;;;;5074474;28;20016;-32
2023/12/20 02:43:21;;;;;;;17.00;2.80;;;;;;;;;;5074515;28;20046;-32
2023/12/20 02:45:47;;;;;;;16.20;2.85;;;;;;;;;;5074087;28;20259;-32
2023/12/20 02:48:12;;;;;;;19.55;2.60;;;;;;;;;;5074407;28;20051;-31
2023/12/20 02:50:37;;;;;;;22.40;2.97;;;;;;;;;;5074014;28;20043;-32
2023/12/20 02:53:02;;;;;;;24.60;3.10;;;;;;;;;;5073900;28;20270;-32
2023/12/20 02:55:27;;;;;;;27.90;3.08;;;;;;;;;;5073814;28;20340;-32
2023/12/20 02:57:52;;;;;;;26.73;2.77;;;;;;;;;;5074180;28;20027;-31
2023/12/20 03:00:18;;;;;;;17.73;3.00;;;;;;;;;;5073355;28;20664;-31
2023/12/20 03:02:43;;;;;;;20.40;2.67;;;;;;;;;;5073453;28;20298;-32
2023/12/20 03:05:08;;;;;;;16.13;2.93;;;;;;;;;;5073027;28;20714;-31
2023/12/20 03:07:33;;;;;;;22.67;3.07;;;;;;;;;;5072651;28;20337;-32
2023/12/20 03:09:58;;;;;;;23.70;3.28;;;;;;;;;;5073261;28;20259;-32
2023/12/20 03:12:24;;;;;;;16.10;2.72;;;;;;;;;;5073111;28;20074;-32
2023/12/20 03:14:49;;;;;;;27.83;3.20;;;;;;;;;;5073163;28;20809;-31
2023/12/20 03:17:14;;;;;;;21.10;3.15;;;;;;;;;;5073131;28;20048;-32
2023/12/20 03:19:39;;;;;;;16.40;2.23;;;;;;;;;;5073073;28;20058;-31
2023/12/20 03:22:05;;;;;;;24.20;3.10;;;;;;;;;;5073388;28;20243;-32
2023/12/20 03:24:30;;;;;;;23.70;3.17;;;;;;;;;;5073319;28;20251;-31
2023/12/20 03:26:55;;;;;;;26.25;3.50;;;;;;;;;;5072615;28;20366;-31
2023/12/20 03:29:20;;;;;;;22.97;3.60;;;;;;;;;;5073269;28;20024;-31
2023/12/20 03:31:45;;;;;;;22.23;3.67;;;;;;;;;;5072632;28;20345;-32
2023/12/20 03:34:11;;;;;;;23.30;2.97;;;;;;;;;;5072595;28;20460;-32
2023/12/20 03:36:36;;;;;;;21.33;2.92;;;;;;;;;;5072554;28;20355;-32
2023/12/20 03:39:01;;;;;;;20.80;2.60;;;;;;;;;;5072860;28;20028;-32
2023/12/20 03:41:26;;;;;;;23.63;3.10;;;;;;;;;;5072602;28;20805;-32
2023/12/20 03:43:51;;;;;;;12.83;2.43;;;;;;;;;;5072531;28;20267;-32
2023/12/20 03:46:17;;;;;;;24.53;2.80;;;;;;;;;;5071305;28;20644;-32
2023/12/20 03:48:42;;;;;;;25.45;3.03;;;;;;;;;;5073042;28;20294;-31
2023/12/20 03:51:07;;;;;;;20.95;2.95;;;;;;;;;;5072669;28;20062;-32
2023/12/20 03:53:32;;;;;;;19.27;3.40;;;;;;;;;;5072270;28;20613;-32
2023/12/20 03:55:57;;;;;;;20.10;2.65;;;;;;;;;;5072304;28;20308;-31
2023/12/20 03:58:23;;;;;;;20.67;3.20;;;;;;;;;;5072921;28;20016;-31
2023/12/20 04:00:48;;;;;;;21.40;3.00;;;;;;;;;;5072340;28;20016;-32
2023/12/20 04:03:13;;;;;;;20.25;2.90;;;;;;;;;;5036183;28;1040732;-32
2023/12/20 04:05:40;;;;;;;20.05;2.72;;;;;;;;;;5073435;28;20035;-32
2023/12/20 04:08:05;;;;;;;20.10;2.97;;;;;;;;;;5073689;28;20029;-32
2023/12/20 04:10:30;;;;;;;23.33;2.75;;;;;;;;;;5073061;28;20456;-32
2023/12/20 04:12:55;;;;;;;25.50;3.10;;;;;;;;;;5072054;28;20032;-31
2023/12/20 04:15:21;;;;;;;19.65;3.20;;;;;;;;;;5072940;28;20029;-32
2023/12/20 04:17:46;;;;;;;19.17;2.65;;;;;;;;;;5072811;28;20032;-31
2023/12/20 04:20:11;;;;;;;17.63;3.13;;;;;;;;;;5073069;28;20376;-32
2023/12/20 04:22:36;;;;;;;23.52;3.15;;;;;;;;;;5073536;28;20263;-32
2023/12/20 04:25:02;;;;;;;14.48;3.55;;;;;;;;;;5073553;28;20016;-32
2023/12/20 04:27:27;;;;;;;24.45;3.28;;;;;;;;;;5073217;28;20021;-32
2023/12/20 04:29:52;;;;;;;15.80;3.17;;;;;;;;;;5073196;28;20057;-32
2023/12/20 04:32:17;;;;;;;22.13;2.97;;;;;;;;;;5072942;28;20399;-32
2023/12/20 04:34:43;;;;;;;20.13;2.77;;;;;;;;;;5073404;28;20063;-32
2023/12/20 04:37:08;;;;;;;19.57;3.50;;;;;;;;;;5072739;28;20282;-32
2023/12/20 04:39:33;;;;;;;22.77;3.43;;;;;;;;;;5073336;28;20247;-32
2023/12/20 04:41:58;;;;;;;24.48;3.47;;;;;;;;;;5072276;28;20340;-32
2023/12/20 04:44:23;;;;;;;26.27;3.63;;;;;;;;;;5072656;28;20048;-32
2023/12/20 04:46:49;;;;;;;25.13;3.10;;;;;;;;;;5072757;28;20745;-32
2023/12/20 04:49:14;;;;;;;18.92;3.30;;;;;;;;;;5072589;28;20052;-32
2023/12/20 04:51:39;;;;;;;19.13;2.80;;;;;;;;;;5072673;28;20430;-32
2023/12/20 04:54:04;;;;;;;22.63;4.10;;;;;;;;;;5073316;28;20259;-31
2023/12/20 04:56:29;;;;;;;28.20;3.50;;;;;;;;;;5072556;28;20718;-33
2023/12/20 04:58:54;;;;;;;23.40;3.03;;;;;;;;;;5075650;28;20239;-32
2023/12/20 05:01:20;;;;;;;20.95;3.20;;;;;;;;;;5076419;28;20047;-32
2023/12/20 05:03:45;;;;;;;20.48;2.97;;;;;;;;;;5076127;28;20037;-33
2023/12/20 05:06:11;;;;;;;26.35;3.20;;;;;;;;;;5076027;28;20023;-32
2023/12/20 05:08:36;;;;;;;18.57;3.13;;;;;;;;;;5075692;28;20494;-33
2023/12/20 05:11:01;;;;;;;28.92;3.13;;;;;;;;;;5076237;28;20344;-33
2023/12/20 05:13:26;;;;;;;21.65;2.90;;;;;;;;;;5076240;28;20019;-32
2023/12/20 05:15:52;;;;;;;16.30;2.77;;;;;;;;;;5075916;28;20527;-33
2023/12/20 05:18:17;;;;;;;18.20;2.63;;;;;;;;;;5076150;28;20267;-33
2023/12/20 05:20:42;;;;;;;20.33;2.87;;;;;;;;;;5075864;28;20304;-33
2023/12/20 05:23:07;;;;;;;19.00;3.30;;;;;;;;;;5076364;28;20250;-32
2023/12/20 05:25:33;;;;;;;14.32;2.58;;;;;;;;;;5076029;28;20258;-33
2023/12/20 05:27:58;;;;;;;18.15;2.90;;;;;;;;;;5075498;28;20016;-32
2023/12/20 05:30:23;;;;;;;23.42;2.75;;;;;;;;;;5075638;28;20021;-33
2023/12/20 05:32:48;;;;;;;18.15;3.03;;;;;;;;;;5075913;28;20086;-32
2023/12/20 05:35:15;;;;;;;26.30;3.25;;;;;;;;;;5075648;28;20090;-33
2023/12/20 05:37:40;;;;;;;23.85;2.90;;;;;;;;;;5075630;28;20401;-33
2023/12/20 05:40:05;;;;;;;21.15;3.38;;;;;;;;;;5075778;28;20020;-33
2023/12/20 05:42:31;;;;;;;22.52;3.17;;;;;;;;;;5075444;28;20024;-33
2023/12/20 05:44:56;;;;;;;23.25;2.90;;;;;;;;;;5075667;28;20017;-32
2023/12/20 05:47:21;;;;;;;19.63;3.20;;;;;;;;;;5076108;28;20020;-33
2023/12/20 05:49:46;;;;;;;13.95;2.58;;;;;;;;;;5075602;28;20043;-33
2023/12/20 05:52:11;;;;;;;19.90;2.90;;;;;;;;;;5075348;28;20020;-32
2023/12/20 05:54:37;;;;;;;17.83;2.58;;;;;;;;;;5075728;28;20250;-33
2023/12/20 05:57:02;;;;;;;16.13;2.57;;;;;;;;;;5075149;28;20415;-33
2023/12/20 05:59:27;;;;;;;24.23;3.83;;;;;;;;;;5075384;28;20252;-33
2023/12/20 06:01:53;;;;;;;15.05;2.72;;;;;;;;;;5075373;28;20082;-33
2023/12/20 06:04:18;;;;;;;19.08;2.80;;;;;;;;;;5074901;28;20456;-32
2023/12/20 06:06:43;;;;;;;16.10;3.10;;;;;;;;;;5075427;28;20028;-33
2023/12/20 06:09:09;;;;;;;19.92;2.92;;;;;;;;;;5074318;28;20622;-33
2023/12/20 06:11:34;;;;;;;24.70;2.95;;;;;;;;;;5074900;28;20352;-33
2023/12/20 06:13:59;;;;;;;18.63;2.90;;;;;;;;;;5074848;28;20031;-32
2023/12/20 06:16:24;;;;;;;24.07;4.03;;;;;;;;;;5075296;28;20016;-32
2023/12/20 06:18:50;;;;;;;20.67;2.70;;;;;;;;;;5074704;28;20792;-33
2023/12/20 06:21:15;;;;;;;20.97;3.60;;;;;;;;;;5074640;28;20255;-33
2023/12/20 06:23:40;;;;;;;16.25;2.85;;;;;;;;;;5074636;28;20558;-33
2023/12/20 06:26:05;;;;;;;19.92;2.97;;;;;;;;;;5074586;28;20017;-33
2023/12/20 06:28:30;;;;;;;14.90;2.73;;;;;;;;;;5074535;28;20017;-33
2023/12/20 06:30:57;;;;;;;20.00;3.23;;;;;;;;;;5074385;28;20295;-33
2023/12/20 06:33:22;;;;;;;18.17;2.70;;;;;;;;;;5074955;28;20251;-32
2023/12/20 06:35:47;;;;;;;27.17;3.35;;;;;;;;;;5074331;28;20095;-33
2023/12/20 06:38:12;;;;;;;15.50;3.05;;;;;;;;;;5075336;28;20154;-33
2023/12/20 06:40:38;;;;;;;18.73;2.97;;;;;;;;;;5074599;28;20092;-33
2023/12/20 06:43:03;;;;;;;15.65;2.70;;;;;;;;;;5074211;28;20269;-32
2023/12/20 06:45:28;;;;;;;21.90;3.30;;;;;;;;;;5074540;28;20027;-33
2023/12/20 06:47:54;;;;;;;27.33;2.97;;;;;;;;;;5074678;28;20020;-32
2023/12/20 06:50:19;;;;;;;27.60;3.35;;;;;;;;;;5074237;28;20618;-33
2023/12/20 06:52:45;;;;;;;24.08;3.58;;;;;;;;;;5072899;28;20023;-33
2023/12/20 06:55:10;;;;;;;27.10;3.28;;;;;;;;;;5074468;28;20086;-33
2023/12/20 06:57:36;;;;;;;15.38;2.50;;;;;;;;;;5072578;28;20032;-32
2023/12/20 07:00:02;;;;;;;16.95;2.40;;;;;;;;;;5074243;28;20019;-33
2023/12/20 07:02:30;;;;;;;19.58;2.58;;;;;;;;;;5074074;28;20063;-31
2023/12/20 07:04:55;;;;;;;22.73;3.33;;;;;;;;;;5074187;28;20016;-33
2023/12/20 07:07:20;;;;;;;21.70;3.10;;;;;;;;;;5074345;28;20070;-33
2023/12/20 07:09:45;;;;;;;20.17;3.27;;;;;;;;;;5074086;28;20259;-33
2023/12/20 07:12:10;;;;;;;20.80;3.20;;;;;;;;;;5073946;28;20255;-33
2023/12/20 07:14:36;;;;;;;16.65;2.90;;;;;;;;;;5073936;28;20024;-33
2023/12/20 07:17:01;;;;;;;19.83;2.90;;;;;;;;;;5073664;28;20460;-33
2023/12/20 07:19:26;;;;;;;19.83;2.90;;;;;;;;;;5073854;28;20263;-33
2023/12/20 07:21:51;;;;;;;18.00;3.13;;;;;;;;;;5073412;28;20543;-33
2023/12/20 07:24:17;;;;;;;16.83;3.25;;;;;;;;;;5073536;28;20263;-33
2023/12/20 07:26:42;;;;;;;29.92;3.08;;;;;;;;;;5074079;28;20024;-32
2023/12/20 07:29:08;;;;;;;14.32;3.20;;;;;;;;;;5073469;28;20027;-32
2023/12/20 07:31:34;;;;;;;21.83;3.15;;;;;;;;;;5073462;28;20024;-33
2023/12/20 07:33:59;;;;;;;17.58;2.50;;;;;;;;;;5073524;28;20039;-33
2023/12/20 07:36:25;;;;;;;23.10;3.37;;;;;;;;;;5073319;28;20025;-32
2023/12/20 07:38:50;;;;;;;18.00;2.60;;;;;;;;;;5073949;28;20254;-33
2023/12/20 07:41:21;;;;;;;21.60;3.13;;;;;;;;;;5073430;28;20296;-33
2023/12/20 07:43:46;;;;;;;21.20;3.15;;;;;;;;;;5073712;28;20262;-32
2023/12/20 07:46:11;;;;;;;18.35;3.20;;;;;;;;;;5073321;28;20325;-32
2023/12/20 07:48:37;;;;;;;18.63;3.88;;;;;;;;;;5073265;28;20024;-33
2023/12/20 07:51:02;;;;;;;20.63;3.05;;;;;;;;;;5073593;28;20016;-33
2023/12/20 07:53:28;;;;;;;23.48;3.75;;;;;;;;;;5073239;28;20096;-33
2023/12/20 07:55:53;;;;;;;21.40;2.88;;;;;;;;;;5073516;28;20044;-33
2023/12/20 07:58:18;;;;;;;28.60;3.10;;;;;;;;;;5073267;28;20029;-33
2023/12/20 08:00:43;;;;;;;26.25;3.38;;;;;;;;;;5073150;28;20070;-33
2023/12/20 08:03:09;;;;;;;30.70;4.28;;;;;;;;;;5072983;28;20044;-33
2023/12/20 08:05:34;;;;;;;26.65;3.65;;;;;;;;;;5073462;28;20097;-32
2023/12/20 08:07:59;;;;;;;22.93;2.87;;;;;;;;;;5073162;28;20048;-33
2023/12/20 08:10:25;;;;;;;21.10;2.97;;;;;;;;;;5073217;28;20259;-33
2023/12/20 08:12:50;;;;;;;22.70;2.92;;;;;;;;;;5073097;28;20254;-32
2023/12/20 08:15:15;;;;;;;24.13;3.10;;;;;;;;;;5072859;28;20028;-33
2023/12/20 08:17:42;;;;;;;17.35;3.20;;;;;;;;;;5073529;28;20274;-33
2023/12/20 08:20:07;;;;;;;28.08;3.53;;;;;;;;;;5073303;28;20021;-33
2023/12/20 08:22:32;;;;;;;22.40;3.17;;;;;;;;;;5072900;28;20028;-33
2023/12/20 08:24:57;;;;;;;24.20;3.73;;;;;;;;;;5072937;28;20098;-32
2023/12/20 08:27:23;;;;;;;24.23;3.00;;;;;;;;;;5073493;28;20247;-33
2023/12/20 08:29:49;;;;;;;22.55;3.13;;;;;;;;;;5073486;28;20033;-32
2023/12/20 08:32:14;;;;;;;22.63;2.80;;;;;;;;;;5073219;28;20491;-33
2023/12/20 08:34:39;;;;;;;22.53;3.03;;;;;;;;;;5076628;28;20021;-33
2023/12/20 08:37:05;;;;;;;22.50;3.10;;;;;;;;;;5076516;28;20282;-33
2023/12/20 08:39:30;;;;;;;16.17;3.37;;;;;;;;;;5076899;28;20020;-33
2023/12/20 08:41:55;;;;;;;16.38;3.08;;;;;;;;;;5076676;28;20308;-33
2023/12/20 08:44:22;;;;;;;16.03;3.00;;;;;;;;;;5077011;28;20017;-33
2023/12/20 08:46:48;;;;;;;20.10;3.25;;;;;;;;;;5077132;28;20265;-33
2023/12/20 08:49:13;;;;;;;21.80;2.95;;;;;;;;;;5076719;28;20033;-33
2023/12/20 08:51:40;;;;;;;22.13;2.93;;;;;;;;;;5076546;28;20071;-33
2023/12/20 08:54:07;;;;;;;22.85;2.75;;;;;;;;;;5076441;28;20262;-33
2023/12/20 08:56:33;;;;;;;17.88;2.72;;;;;;;;;;5076258;28;20511;-32
2023/12/20 08:58:58;;;;;;;21.63;3.45;;;;;;;;;;5076157;28;20081;-33
2023/12/20 09:01:23;;;;;;;21.13;3.43;;;;;;;;;;5076389;28;20020;-32
2023/12/20 09:03:49;;;;;;;21.33;3.00;;;;;;;;;;5075971;28;20289;-32
2023/12/20 09:06:14;;;;;;;15.43;2.43;;;;;;;;;;5076656;28;20247;-33
2023/12/20 09:08:39;;;;;;;23.20;2.97;;;;;;;;;;5076280;28;20283;-32
2023/12/20 09:11:04;;;;;;;18.87;2.43;;;;;;;;;;5075963;28;20021;-32
2023/12/20 09:13:31;;;;;;;18.77;2.93;;;;;;;;;;5075117;28;20345;-33
2023/12/20 09:15:57;;;;;;;20.02;2.72;;;;;;;;;;5075915;28;20262;-32
2023/12/20 09:18:22;;;;;;;20.05;3.30;;;;;;;;;;5075746;28;20078;-32
2023/12/20 09:20:47;;;;;;;20.20;3.17;;;;;;;;;;5075838;28;20017;-32
2023/12/20 09:23:12;;;;;;;19.10;2.93;;;;;;;;;;5076182;28;20168;-33
2023/12/20 09:25:37;;;;;;;24.93;3.70;;;;;;;;;;5076382;28;20255;-33
2023/12/20 09:28:03;;;;;;;17.77;2.77;;;;;;;;;;5075727;28;20259;-32
2023/12/20 09:30:29;;;;;;;17.65;2.83;;;;;;;;;;5075860;28;20357;-32
2023/12/20 09:32:54;;;;;;;22.77;3.30;;;;;;;;;;5075807;28;20081;-32
2023/12/20 09:35:19;;;;;;;18.25;3.50;;;;;;;;;;5076096;28;20013;-33
2023/12/20 09:37:46;;;;;;;17.58;2.90;;;;;;;;;;5075907;28;20016;-32
2023/12/20 09:40:12;;;;;;;27.60;3.17;;;;;;;;;;5075426;28;20348;-32
2023/12/20 09:42:42;;;;;;;19.90;2.65;;;;;;;;;;5075313;28;20017;-32
2023/12/20 09:45:08;;;;;;;21.13;3.40;;;;;;;;;;5075193;28;20013;-33
2023/12/20 09:47:34;;;;;;;20.25;2.90;;;;;;;;;;5075762;28;20021;-33
2023/12/20 09:49:59;;;;;;;21.27;2.80;;;;;;;;;;5075498;28;20400;-33
2023/12/20 09:52:25;;;;;;;17.35;3.08;;;;;;;;;;5075481;28;20108;-33
2023/12/20 09:54:52;;;;;;;23.52;3.00;;;;;;;;;;5075678;28;20029;-32
2023/12/20 09:57:17;;;;;;;24.20;2.95;;;;;;;;;;5075161;28;20017;-33
2023/12/20 09:59:42;;;;;;;20.38;2.90;;;;;;;;;;5075600;28;20048;-33
2023/12/20 10:02:10;;;;;;;20.40;2.80;;;;;;;;;;5075010;28;20376;-33
2023/12/20 10:04:35;;;;;;;19.63;3.05;;;;;;;;;;5074756;28;20294;-33
2023/12/20 10:07:04;;;;;;;18.67;3.17;;;;;;;;;;5075472;28;20020;-33
2023/12/20 10:09:30;;;;;;;17.10;3.10;;;;;;;;;;5074777;28;20262;-33
2023/12/20 10:11:57;;;;;;;19.88;3.03;;;;;;;;;;5074788;28;20027;-33
2023/12/20 10:14:23;;;;;;;27.83;3.17;;;;;;;;;;5075125;28;20040;-33
2023/12/20 10:16:48;;;;;;;18.45;2.53;;;;;;;;;;5074943;28;20016;-34
2023/12/20 10:19:16;;;;;;;13.95;2.40;;;;;;;;;;5074987;28;20023;-33
2023/12/20 10:21:41;;;;;;;12.50;2.78;;;;;;;;;;5074674;28;20085;-33
2023/12/20 10:24:06;;;;;;;14.73;2.70;;;;;;;;;;5073325;28;20013;-33
2023/12/20 10:26:31;;;;;;;23.77;2.70;;;;;;;;;;5074475;28;20293;-33
2023/12/20 10:29:00;;;;;;;20.20;2.80;;;;;;;;;;5073217;28;20016;-33
2023/12/20 10:31:30;;;;;;;18.33;2.80;;;;;;;;;;5074728;28;20020;-33
2023/12/20 10:33:56;;;;;;;17.45;2.88;;;;;;;;;;5074225;28;20016;-33
2023/12/20 10:36:22;;;;;;;16.83;2.67;;;;;;;;;;5074171;28;20493;-33
2023/12/20 10:38:49;;;;;;;19.98;2.70;;;;;;;;;;5074181;28;20074;-33
2023/12/20 10:41:17;;;;;;;14.90;2.60;;;;;;;;;;5074149;28;20044;-33
2023/12/20 10:43:42;;;;;;;19.13;2.88;;;;;;;;;;5074120;28;20032;-33
2023/12/20 10:46:08;;;;;;;18.40;2.67;;;;;;;;;;5074154;28;20016;-33
2023/12/20 10:48:34;;;;;;;17.50;2.70;;;;;;;;;;5074198;28;20032;-33
2023/12/20 10:51:00;;;;;;;17.67;3.05;;;;;;;;;;5074070;28;20029;-33
2023/12/20 10:53:25;;;;;;;24.00;3.13;;;;;;;;;;5074326;28;20151;-33
2023/12/20 10:55:52;;;;;;;18.73;3.43;;;;;;;;;;5073575;28;20484;-33
2023/12/20 10:58:19;;;;;;;18.75;2.45;;;;;;;;;;5074425;28;20279;-33
2023/12/20 11:00:45;;;;;;;17.80;2.70;;;;;;;;;;5073930;28;20518;-33
2023/12/20 11:03:11;;;;;;;16.83;2.67;;;;;;;;;;5073866;28;20411;-33
2023/12/20 11:05:55;;;;;;;21.45;2.95;;;;;;;;;;5073871;28;20024;-33
2023/12/20 11:08:23;;;;;;;16.80;2.63;;;;;;;;;;5073923;28;20020;-33
2023/12/20 11:10:58;;;;;;;12.48;2.42;;;;;;;;;;5074359;28;20027;-33
2023/12/20 11:13:53;;;;;;;17.13;2.80;;;;;;;;;;5073759;28;20069;-33
2023/12/20 11:16:18;;;;;;;15.68;2.78;;;;;;;;;;5074126;28;20086;-33
2023/12/20 11:18:44;;;;;;;16.65;2.78;;;;;;;;;;5073635;28;20483;-33
2023/12/20 11:21:11;;;;;;;17.63;2.92;;;;;;;;;;5074214;28;20016;-33
2023/12/20 11:23:36;;;;;;;20.38;3.28;;;;;;;;;;5073802;28;20066;-33
2023/12/20 11:26:01;;;;;;;14.85;2.80;;;;;;;;;;5073972;28;20016;-33
2023/12/20 11:28:26;;;;;;;9.85;2.10;;;;;;;;;;5074164;28;20016;-33
2023/12/20 11:30:52;;;;;;;15.93;2.65;;;;;;;;;;5074133;28;20452;-33
2023/12/20 11:33:22;;;;;;;17.88;3.10;;;;;;;;;;5073045;28;20047;-33
2023/12/20 11:35:47;;;;;;;15.10;2.25;;;;;;;;;;5073635;28;20024;-33
2023/12/20 11:38:14;;;;;;;14.70;2.88;;;;;;;;;;5073624;28;20016;-33
2023/12/20 11:40:40;;;;;;;19.70;2.40;;;;;;;;;;5074103;28;20040;-33
2023/12/20 11:43:06;;;;;;;20.95;2.92;;;;;;;;;;5073553;28;20490;-37
2023/12/20 11:45:32;;;;;;;18.05;2.90;;;;;;;;;;5073483;28;20013;-33
2023/12/20 11:47:57;;;;;;;16.75;2.88;;;;;;;;;;5072123;28;20024;-34
2023/12/20 11:50:23;;;;;;;15.60;2.53;;;;;;;;;;5073443;28;20070;-33
2023/12/20 11:52:48;;;;;;;9.85;2.80;;;;;;;;;;5073599;28;20090;-33
2023/12/20 11:55:14;;;;;;;17.85;3.00;;;;;;;;;;5074207;28;20444;-33
2023/12/20 11:57:39;;;;;;;22.10;3.17;;;;;;;;;;5073138;28;20383;-33
2023/12/20 12:00:06;;;;;;;15.35;2.40;;;;;;;;;;5073867;28;20059;-33
2023/12/20 12:02:31;;;;;;;15.52;2.63;;;;;;;;;;5073398;28;20523;-36
2023/12/20 12:04:58;;;;;;;15.10;2.72;;;;;;;;;;5073475;28;20040;-34
2023/12/20 12:07:23;;;;;;;15.18;3.05;;;;;;;;;;5073636;28;20119;-34
2023/12/20 12:09:48;;;;;;;19.97;2.50;;;;;;;;;;5077381;28;20048;-34
2023/12/20 12:12:14;;;;;;;16.77;2.53;;;;;;;;;;5077095;28;20262;-34
2023/12/20 12:14:40;;;;;;;15.05;2.25;;;;;;;;;;5075921;28;20567;-34
2023/12/20 12:17:10;;;;;;;15.98;2.72;;;;;;;;;;5076987;28;20016;-34
2023/12/20 12:19:37;;;;;;;17.77;2.60;;;;;;;;;;5076989;28;20028;-35
2023/12/20 12:22:16;;;;;;;15.20;2.72;;;;;;;;;;5077268;28;20463;-40
2023/12/20 12:24:41;;;;;;;21.48;2.60;;;;;;;;;;5077278;28;20039;-34
2023/12/20 12:27:07;;;;;;;15.27;3.13;;;;;;;;;;5076873;28;20395;-37
2023/12/20 12:29:33;;;;;;;16.75;3.00;;;;;;;;;;5076786;28;20101;-34
2023/12/20 12:31:58;;;;;;;20.40;2.70;;;;;;;;;;5077111;28;20062;-34
2023/12/20 12:34:24;;;;;;;13.68;2.53;;;;;;;;;;5076777;28;20502;-34
2023/12/20 12:36:49;;;;;;;16.20;2.70;;;;;;;;;;5076707;28;20031;-34
2023/12/20 12:39:15;;;;;;;18.45;2.50;;;;;;;;;;5076734;28;20020;-33
2023/12/20 12:41:40;;;;;;;22.40;3.72;;;;;;;;;;5076899;28;20372;-34
2023/12/20 12:44:06;;;;;;;15.10;2.77;;;;;;;;;;5076663;28;20023;-34
2023/12/20 12:46:31;;;;;;;17.25;2.72;;;;;;;;;;5077122;28;20255;-34
2023/12/20 12:48:56;;;;;;;22.33;2.72;;;;;;;;;;5076768;28;20020;-34
2023/12/20 12:51:22;;;;;;;20.63;2.43;;;;;;;;;;5076538;28;20455;-33
2023/12/20 12:53:47;;;;;;;14.23;2.50;;;;;;;;;;5075084;28;20259;-34
2023/12/20 12:56:12;;;;;;;17.40;3.30;;;;;;;;;;5077021;28;20013;-34
2023/12/20 12:58:37;;;;;;;12.57;2.22;;;;;;;;;;5076322;28;20111;-34
2023/12/20 13:01:03;;;;;;;17.63;2.40;;;;;;;;;;5076454;28;20095;-33
2023/12/20 13:03:28;;;;;;;17.50;2.60;;;;;;;;;;5076333;28;20287;-34
2023/12/20 13:05:53;;;;;;;17.27;2.53;;;;;;;;;;5076826;28;20019;-34
2023/12/20 13:08:19;;;;;;;20.15;2.58;;;;;;;;;;5076156;28;20251;-34
2023/12/20 13:10:44;;;;;;;22.27;2.88;;;;;;;;;;5076438;28;20027;-34
2023/12/20 13:13:10;;;;;;;14.38;3.05;;;;;;;;;;5076424;28;20035;-33
2023/12/20 13:15:35;;;;;;;17.50;2.15;;;;;;;;;;5076480;28;20017;-33
2023/12/20 13:18:02;;;;;;;13.75;2.28;;;;;;;;;;5076046;28;20032;-34
2023/12/20 13:20:27;;;;;;;13.80;2.55;;;;;;;;;;5076058;28;20047;-35
2023/12/20 13:22:52;;;;;;;21.13;3.08;;;;;;;;;;5076385;28;20017;-34
2023/12/20 13:25:18;;;;;;;17.13;2.58;;;;;;;;;;5076281;28;20490;-33
2023/12/20 13:27:43;;;;;;;11.83;2.33;;;;;;;;;;5076048;28;20371;-33
2023/12/20 13:30:08;;;;;;;16.92;2.38;;;;;;;;;;5076180;28;20334;-33
2023/12/20 13:32:34;;;;;;;19.45;3.00;;;;;;;;;;5076337;28;20024;-33
2023/12/20 13:34:59;;;;;;;18.00;2.75;;;;;;;;;;5076035;28;20459;-34
2023/12/20 13:37:24;;;;;;;16.53;3.00;;;;;;;;;;5075712;28;20108;-34
2023/12/20 13:39:49;;;;;;;15.07;2.73;;;;;;;;;;5075768;28;20274;-34
2023/12/20 13:42:14;;;;;;;15.40;2.30;;;;;;;;;;5075630;28;20292;-34
2023/12/20 13:44:40;;;;;;;16.33;2.60;;;;;;;;;;5074373;28;20273;-33
2023/12/20 13:47:06;;;;;;;17.75;3.10;;;;;;;;;;5076055;28;20031;-34
2023/12/20 13:49:31;;;;;;;13.25;2.50;;;;;;;;;;5075450;28;20460;-34
2023/12/20 13:51:57;;;;;;;15.30;3.05;;;;;;;;;;5075485;28;20070;-34
2023/12/20 13:54:22;;;;;;;15.75;2.70;;;;;;;;;;5075989;28;20513;-34
2023/12/20 13:56:47;;;;;;;13.33;2.50;;;;;;;;;;5075879;28;20033;-34
2023/12/20 13:59:13;;;;;;;22.23;2.47;;;;;;;;;;5075354;28;20270;-34
2023/12/20 14:01:39;;;;;;;18.40;2.95;;;;;;;;;;5074038;28;20254;-34
2023/12/20 14:04:04;;;;;;;24.08;3.40;;;;;;;;;;5075024;28;20484;-33
2023/12/20 14:06:29;;;;;;;17.33;3.00;;;;;;;;;;5073953;28;20024;-33
2023/12/20 14:08:55;;;;;;;18.35;3.65;;;;;;;;;;5075164;28;20091;-34
2023/12/20 14:11:20;;;;;;;15.30;3.47;;;;;;;;;;5075048;28;20012;-34
2023/12/20 14:13:45;;;;;;;21.05;3.35;;;;;;;;;;5075033;28;20463;-34
2023/12/20 14:16:11;;;;;;;19.98;2.47;;;;;;;;;;5073663;28;20391;-37
2023/12/20 14:18:36;;;;;;;17.85;3.05;;;;;;;;;;5074900;28;20031;-34
2023/12/20 14:21:01;;;;;;;16.63;2.42;;;;;;;;;;5073698;28;20027;-34